sensor_id;sensor_type;location;lat;lon;timestamp;pressure;altitude;pressure_sealevel;temperature;humidity
64298;BME280;50639;53.270;7.956;2023-03-01T00:00:37;106321.16;;;-0.64;100.00
64298;BME280;50639;53.270;7.956;2023-03-01T00:03:02;106195.16;;;-0.66;100.00
64298;BME280;50639;53.270;7.956;2023-03-01T00:05:27;106158.16;;;-0.68;100.00
64298;BME280;50639;53.270;7.956;2023-03-01T00:07:53;106144.06;;;-0.68;100.00
64298;BME280;50639;53.270;7.956;2023-03-01T00:10:18;106209.28;;;-0.67;100.00
64298;BME280;50639;53.270;7.956;2023-03-01T00:12:43;106216.31;;;-0.66;100.00
64298;BME280;50639;53.270;7.956;2023-03-01T00:15:09;106203.09;;;-0.66;100.00
64298;BME280;50639;53.270;7.956;2023-03-01T00:17:34;106126.41;;;-0.66;100.00
64298;BME280;50639;53.270;7.956;2023-03-01T00:20:00;106035.69;;;-0.70;100.00
64298;BME280;50639;53.270;7.956;2023-03-01T00:22:26;105878.88;;;-0.72;100.00
64298;BME280;50639;53.270;7.956;2023-03-01T00:24:51;105815.47;;;-0.75;100.00
64298;BME280;50639;53.270;7.956;2023-03-01T00:27:16;105755.59;;;-0.76;100.00
64298;BME280;50639;53.270;7.956;2023-03-01T00:29:42;105829.63;;;-0.76;100.00
64298;BME280;50639;53.270;7.956;2023-03-01T00:32:07;105945.84;;;-0.73;100.00
64298;BME280;50639;53.270;7.956;2023-03-01T00:34:32;105778.56;;;-0.78;100.00
64298;BME280;50639;53.270;7.956;2023-03-01T00:36:58;105804.09;;;-0.78;100.00
64298;BME280;50639;53.270;7.956;2023-03-01T00:39:30;105758.34;;;-0.80;100.00
64298;BME280;50639;53.270;7.956;2023-03-01T00:41:55;105687.91;;;-0.83;100.00
64298;BME280;50639;53.270;7.956;2023-03-01T00:44:21;105624.56;;;-0.86;100.00
64298;BME280;50639;53.270;7.956;2023-03-01T00:46:48;105599.06;;;-0.89;100.00
64298;BME280;50639;53.270;7.956;2023-03-01T00:49:13;105497.91;;;-0.94;100.00
64298;BME280;50639;53.270;7.956;2023-03-01T00:51:39;105512.88;;;-0.94;100.00
64298;BME280;50639;53.270;7.956;2023-03-01T00:54:09;105574.56;;;-0.95;100.00
64298;BME280;50639;53.270;7.956;2023-03-01T00:56:34;105511.22;;;-0.98;100.00
64298;BME280;50639;53.270;7.956;2023-03-01T00:59:00;105467.19;;;-0.99;100.00
64298;BME280;50639;53.270;7.956;2023-03-01T01:01:26;105343.16;;;-1.04;100.00
64298;BME280;50639;53.270;7.956;2023-03-01T01:03:55;105335.25;;;-1.05;100.00
64298;BME280;50639;53.270;7.956;2023-03-01T01:06:22;105389.84;;;-1.04;100.00
64298;BME280;50639;53.270;7.956;2023-03-01T01:08:48;105370.53;;;-1.06;100.00
64298;BME280;50639;53.270;7.956;2023-03-01T01:11:14;105351.22;;;-1.08;100.00
64298;BME280;50639;53.270;7.956;2023-03-01T01:13:39;105236.03;;;-1.14;100.00
64298;BME280;50639;53.270;7.956;2023-03-01T01:16:05;105221.13;;;-1.16;100.00
64298;BME280;50639;53.270;7.956;2023-03-01T01:18:31;105485.94;;;-1.08;100.00
64298;BME280;50639;53.270;7.956;2023-03-01T01:20:56;105618.78;;;-1.03;100.00
64298;BME280;50639;53.270;7.956;2023-03-01T01:23:22;105561.53;;;-1.03;100.00
64298;BME280;50639;53.270;7.956;2023-03-01T01:25:47;105484.97;;;-1.04;100.00
64298;BME280;50639;53.270;7.956;2023-03-01T01:28:12;105499.94;;;-1.05;100.00
64298;BME280;50639;53.270;7.956;2023-03-01T01:30:38;105520.19;;;-1.05;100.00
64298;BME280;50639;53.270;7.956;2023-03-01T01:33:03;105425.19;;;-1.08;100.00
64298;BME280;50639;53.270;7.956;2023-03-01T01:35:28;105384.78;;;-1.12;100.00
64298;BME280;50639;53.270;7.956;2023-03-01T01:37:54;105476.25;;;-1.09;100.00
64298;BME280;50639;53.270;7.956;2023-03-01T01:40:19;105639.91;;;-1.03;100.00
64298;BME280;50639;53.270;7.956;2023-03-01T01:42:44;105842.41;;;-0.98;100.00
64298;BME280;50639;53.270;7.956;2023-03-01T01:45:43;106109.97;;;-0.85;100.00
64298;BME280;50639;53.270;7.956;2023-03-01T01:48:05;106005.03;;;-0.80;100.00
64298;BME280;50639;53.270;7.956;2023-03-01T01:50:32;105960.91;;;-0.76;100.00
64298;BME280;50639;53.270;7.956;2023-03-01T01:53:04;106026.00;;;-0.69;100.00
64298;BME280;50639;53.270;7.956;2023-03-01T01:55:30;106081.38;;;-0.62;100.00
64298;BME280;50639;53.270;7.956;2023-03-01T01:57:57;105852.25;;;-0.63;100.00
64298;BME280;50639;53.270;7.956;2023-03-01T02:00:24;105690.13;;;-0.65;100.00
64298;BME280;50639;53.270;7.956;2023-03-01T02:02:52;105624.94;;;-0.66;100.00
64298;BME280;50639;53.270;7.956;2023-03-01T02:05:34;105507.84;;;-0.69;100.00
64298;BME280;50639;53.270;7.956;2023-03-01T02:08:02;105468.22;;;-0.71;100.00
64298;BME280;50639;53.270;7.956;2023-03-01T02:10:27;105398.66;;;-0.73;100.00
64298;BME280;50639;53.270;7.956;2023-03-01T02:12:53;105277.22;;;-0.77;100.00
64298;BME280;50639;53.270;7.956;2023-03-01T02:15:19;105364.44;;;-0.77;100.00
64298;BME280;50639;53.270;7.956;2023-03-01T02:17:45;105402.28;;;-0.77;100.00
64298;BME280;50639;53.270;7.956;2023-03-01T02:22:39;105515.00;;;-0.74;100.00
64298;BME280;50639;53.270;7.956;2023-03-01T02:27:49;105200.66;;;-0.80;100.00
64298;BME280;50639;53.270;7.956;2023-03-01T02:30:19;105329.22;;;-0.78;100.00
64298;BME280;50639;53.270;7.956;2023-03-01T02:32:45;105580.06;;;-0.69;100.00
64298;BME280;50639;53.270;7.956;2023-03-01T02:35:12;105586.16;;;-0.65;100.00
64298;BME280;50639;53.270;7.956;2023-03-01T02:37:38;105437.28;;;-0.67;100.00
64298;BME280;50639;53.270;7.956;2023-03-01T02:40:06;105438.13;;;-0.67;100.00
64298;BME280;50639;53.270;7.956;2023-03-01T02:42:40;105512.09;;;-0.64;100.00
64298;BME280;50639;53.270;7.956;2023-03-01T02:45:09;105482.13;;;-0.63;100.00
64298;BME280;50639;53.270;7.956;2023-03-01T02:47:35;105386.09;;;-0.65;100.00
64298;BME280;50639;53.270;7.956;2023-03-01T02:50:01;105267.25;;;-0.68;100.00
64298;BME280;50639;53.270;7.956;2023-03-01T02:55:11;104991.88;;;-0.80;100.00
64298;BME280;50639;53.270;7.956;2023-03-01T02:57:39;104931.25;;;-0.85;100.00
64298;BME280;50639;53.270;7.956;2023-03-01T03:00:06;105180.38;;;-0.80;100.00
64298;BME280;50639;53.270;7.956;2023-03-01T03:02:34;105379.31;;;-0.75;100.00
64298;BME280;50639;53.270;7.956;2023-03-01T03:05:20;105399.59;;;-0.74;100.00
64298;BME280;50639;53.270;7.956;2023-03-01T03:07:48;105340.56;;;-0.74;100.00
64298;BME280;50639;53.270;7.956;2023-03-01T03:10:16;105240.25;;;-0.79;100.00
64298;BME280;50639;53.270;7.956;2023-03-01T03:12:44;105271.97;;;-0.79;100.00
64298;BME280;50639;53.270;7.956;2023-03-01T03:15:13;105051.09;;;-0.86;100.00
64298;BME280;50639;53.270;7.956;2023-03-01T03:17:40;105052.06;;;-0.89;100.00
64298;BME280;50639;53.270;7.956;2023-03-01T03:20:06;104958.81;;;-0.92;100.00
64298;BME280;50639;53.270;7.956;2023-03-01T03:22:36;104646.75;;;-1.06;100.00
64298;BME280;50639;53.270;7.956;2023-03-01T03:25:02;104760.38;;;-1.08;100.00
64298;BME280;50639;53.270;7.956;2023-03-01T03:27:27;104840.59;;;-1.10;100.00
64298;BME280;50639;53.270;7.956;2023-03-01T03:29:52;104936.56;;;-1.11;100.00
64298;BME280;50639;53.270;7.956;2023-03-01T03:32:18;104954.25;;;-1.13;100.00
64298;BME280;50639;53.270;7.956;2023-03-01T03:34:43;104946.38;;;-1.15;100.00
64298;BME280;50639;53.270;7.956;2023-03-01T03:37:09;105012.47;;;-1.16;100.00
64298;BME280;50639;53.270;7.956;2023-03-01T03:39:54;105080.22;;;-1.15;100.00
64298;BME280;50639;53.270;7.956;2023-03-01T03:42:20;104787.41;;;-1.24;100.00
64298;BME280;50639;53.270;7.956;2023-03-01T03:44:45;104719.66;;;-1.25;100.00
64298;BME280;50639;53.270;7.956;2023-03-01T03:47:11;104670.50;;;-1.29;100.00
64298;BME280;50639;53.270;7.956;2023-03-01T03:49:36;104842.94;;;-1.27;100.00
64298;BME280;50639;53.270;7.956;2023-03-01T03:52:01;104657.47;;;-1.34;100.00
64298;BME280;50639;53.270;7.956;2023-03-01T03:54:27;104516.97;;;-1.40;100.00
64298;BME280;50639;53.270;7.956;2023-03-01T03:56:52;104821.22;;;-1.35;100.00
64298;BME280;50639;53.270;7.956;2023-03-01T03:59:17;105055.16;;;-1.30;100.00
64298;BME280;50639;53.270;7.956;2023-03-01T04:01:42;105300.59;;;-1.25;100.00
64298;BME280;50639;53.270;7.956;2023-03-01T04:04:09;105378.91;;;-1.23;100.00
64298;BME280;50639;53.270;7.956;2023-03-01T04:06:34;105151.06;;;-1.29;100.00
64298;BME280;50639;53.270;7.956;2023-03-01T04:09:00;104714.13;;;-1.42;100.00
64298;BME280;50639;53.270;7.956;2023-03-01T04:11:27;104721.34;;;-1.47;100.00
64298;BME280;50639;53.270;7.956;2023-03-01T04:13:53;104918.34;;;-1.45;100.00
64298;BME280;50639;53.270;7.956;2023-03-01T04:16:19;105274.53;;;-1.37;100.00
64298;BME280;50639;53.270;7.956;2023-03-01T04:18:45;105443.38;;;-1.31;100.00
64298;BME280;50639;53.270;7.956;2023-03-01T04:21:10;105589.41;;;-1.26;100.00
64298;BME280;50639;53.270;7.956;2023-03-01T04:23:36;105605.16;;;-1.23;100.00
64298;BME280;50639;53.270;7.956;2023-03-01T04:26:02;105196.16;;;-1.35;100.00
64298;BME280;50639;53.270;7.956;2023-03-01T04:28:29;105189.16;;;-1.36;100.00
64298;BME280;50639;53.270;7.956;2023-03-01T04:30:56;104932.44;;;-1.44;100.00
64298;BME280;50639;53.270;7.956;2023-03-01T04:33:22;104841.06;;;-1.48;100.00
64298;BME280;50639;53.270;7.956;2023-03-01T04:35:48;104768.16;;;-1.52;100.00
64298;BME280;50639;53.270;7.956;2023-03-01T04:38:17;104602.16;;;-1.60;100.00
64298;BME280;50639;53.270;7.956;2023-03-01T04:40:42;104596.06;;;-1.62;100.00
64298;BME280;50639;53.270;7.956;2023-03-01T04:43:08;104445.06;;;-1.68;100.00
64298;BME280;50639;53.270;7.956;2023-03-01T04:45:34;104371.44;;;-1.75;100.00
64298;BME280;50639;53.270;7.956;2023-03-01T04:47:59;104368.91;;;-1.78;100.00
64298;BME280;50639;53.270;7.956;2023-03-01T04:50:28;104254.94;;;-1.86;100.00
64298;BME280;50639;53.270;7.956;2023-03-01T04:52:53;104496.56;;;-1.82;100.00
64298;BME280;50639;53.270;7.956;2023-03-01T04:55:18;104774.28;;;-1.77;100.00
64298;BME280;50639;53.270;7.956;2023-03-01T04:57:44;105061.66;;;-1.69;100.00
64298;BME280;50639;53.270;7.956;2023-03-01T05:00:10;105057.25;;;-1.68;100.00
64298;BME280;50639;53.270;7.956;2023-03-01T05:02:49;105029.16;;;-1.71;100.00
64298;BME280;50639;53.270;7.956;2023-03-01T05:05:19;104969.41;;;-1.74;100.00
64298;BME280;50639;53.270;7.956;2023-03-01T05:07:44;104845.53;;;-1.78;100.00
64298;BME280;50639;53.270;7.956;2023-03-01T05:10:10;104946.69;;;-1.78;100.00
64298;BME280;50639;53.270;7.956;2023-03-01T05:12:35;105278.03;;;-1.69;100.00
64298;BME280;50639;53.270;7.956;2023-03-01T05:15:03;105475.84;;;-1.63;100.00
64298;BME280;50639;53.270;7.956;2023-03-01T05:17:32;105432.72;;;-1.63;100.00
64298;BME280;50639;53.270;7.956;2023-03-01T05:19:58;105538.25;;;-1.60;100.00
64298;BME280;50639;53.270;7.956;2023-03-01T05:22:24;105411.56;;;-1.62;100.00
64298;BME280;50639;53.270;7.956;2023-03-01T05:24:50;105707.91;;;-1.52;100.00
64298;BME280;50639;53.270;7.956;2023-03-01T05:27:15;105915.47;;;-1.45;100.00
64298;BME280;50639;53.270;7.956;2023-03-01T05:29:40;105969.94;;;-1.40;100.00
64298;BME280;50639;53.270;7.956;2023-03-01T05:32:06;106022.69;;;-1.35;100.00
64298;BME280;50639;53.270;7.956;2023-03-01T05:34:32;105992.69;;;-1.31;100.00
64298;BME280;50639;53.270;7.956;2023-03-01T05:36:58;105947.81;;;-1.31;100.00
64298;BME280;50639;53.270;7.956;2023-03-01T05:39:24;105688.22;;;-1.36;100.00
64298;BME280;50639;53.270;7.956;2023-03-01T05:41:56;105485.88;;;-1.40;100.00
64298;BME280;50639;53.270;7.956;2023-03-01T05:44:22;105337.25;;;-1.45;100.00
64298;BME280;50639;53.270;7.956;2023-03-01T05:46:48;105166.69;;;-1.51;100.00
64298;BME280;50639;53.270;7.956;2023-03-01T05:49:14;105265.19;;;-1.49;100.00
64298;BME280;50639;53.270;7.956;2023-03-01T05:51:40;105173.78;;;-1.53;100.00
64298;BME280;50639;53.270;7.956;2023-03-01T05:54:06;105211.63;;;-1.52;100.00
64298;BME280;50639;53.270;7.956;2023-03-01T05:56:36;103846.66;;;-1.96;100.00
64298;BME280;50639;53.270;7.956;2023-03-01T05:59:02;104116.34;;;-1.93;100.00
64298;BME280;50639;53.270;7.956;2023-03-01T06:01:28;103941.94;;;-2.04;100.00
64298;BME280;50639;53.270;7.956;2023-03-01T06:03:54;103582.78;;;-2.26;100.00
64298;BME280;50639;53.270;7.956;2023-03-01T06:06:20;103527.50;;;-2.44;100.00
64298;BME280;50639;53.270;7.956;2023-03-01T06:08:46;104743.19;;;-2.19;100.00
64298;BME280;50639;53.270;7.956;2023-03-01T06:11:11;105382.63;;;-2.02;100.00
64298;BME280;50639;53.270;7.956;2023-03-01T06:13:36;105750.81;;;-1.89;100.00
64298;BME280;50639;53.270;7.956;2023-03-01T06:16:04;105912.53;;;-1.81;100.00
64298;BME280;50639;53.270;7.956;2023-03-01T06:18:29;105574.94;;;-1.90;100.00
64298;BME280;50639;53.270;7.956;2023-03-01T06:20:55;104960.88;;;-2.11;100.00
64298;BME280;50639;53.270;7.956;2023-03-01T06:23:20;104802.94;;;-2.20;100.00
64298;BME280;50639;53.270;7.956;2023-03-01T06:25:46;104704.19;;;-2.36;100.00
64298;BME280;50639;53.270;7.956;2023-03-01T06:28:11;104994.94;;;-2.34;100.00
64298;BME280;50639;53.270;7.956;2023-03-01T06:30:36;105564.19;;;-2.23;100.00
64298;BME280;50639;53.270;7.956;2023-03-01T06:33:02;106283.03;;;-1.98;100.00
64298;BME280;50639;53.270;7.956;2023-03-01T06:35:30;106516.06;;;-1.86;100.00
64298;BME280;50639;53.270;7.956;2023-03-01T06:37:56;106578.50;;;-1.79;100.00
64298;BME280;50639;53.270;7.956;2023-03-01T06:40:22;106719.28;;;-1.71;100.00
64298;BME280;50639;53.270;7.956;2023-03-01T06:45:29;106768.50;;;-1.56;100.00
64298;BME280;50639;53.270;7.956;2023-03-01T06:48:00;106790.50;;;-1.52;100.00
64298;BME280;50639;53.270;7.956;2023-03-01T06:50:26;106815.13;;;-1.47;100.00
64298;BME280;50639;53.270;7.956;2023-03-01T06:52:55;106795.78;;;-1.45;100.00
64298;BME280;50639;53.270;7.956;2023-03-01T06:55:20;106867.09;;;-1.40;100.00
64298;BME280;50639;53.270;7.956;2023-03-01T06:57:46;106947.22;;;-1.32;100.00
64298;BME280;50639;53.270;7.956;2023-03-01T07:00:11;107123.34;;;-1.22;100.00
64298;BME280;50639;53.270;7.956;2023-03-01T07:02:37;107062.56;;;-1.19;100.00
64298;BME280;50639;53.270;7.956;2023-03-01T07:05:02;106873.22;;;-1.20;100.00
64298;BME280;50639;53.270;7.956;2023-03-01T07:07:28;106720.81;;;-1.21;100.00
64298;BME280;50639;53.270;7.956;2023-03-01T07:09:53;107056.41;;;-1.09;100.00
64298;BME280;50639;53.270;7.956;2023-03-01T07:12:19;107220.28;;;-0.97;100.00
64298;BME280;50639;53.270;7.956;2023-03-01T07:14:44;107199.16;;;-0.91;100.00
64298;BME280;50639;53.270;7.956;2023-03-01T07:17:10;107280.28;;;-0.84;100.00
64298;BME280;50639;53.270;7.956;2023-03-01T07:19:35;107249.41;;;-0.79;100.00
64298;BME280;50639;53.270;7.956;2023-03-01T07:22:00;106776.16;;;-0.88;100.00
64298;BME280;50639;53.270;7.956;2023-03-01T07:24:26;106853.69;;;-0.83;100.00
64298;BME280;50639;53.270;7.956;2023-03-01T07:26:51;106296.91;;;-0.96;100.00
64298;BME280;50639;53.270;7.956;2023-03-01T07:29:18;106369.16;;;-0.94;100.00
64298;BME280;50639;53.270;7.956;2023-03-01T07:31:44;106559.41;;;-0.88;100.00
64298;BME280;50639;53.270;7.956;2023-03-01T07:34:09;106663.31;;;-0.83;100.00
64298;BME280;50639;53.270;7.956;2023-03-01T07:36:35;106914.47;;;-0.72;100.00
64298;BME280;50639;53.270;7.956;2023-03-01T07:39:01;107133.09;;;-0.61;100.00
64298;BME280;50639;53.270;7.956;2023-03-01T07:41:28;107371.19;;;-0.47;100.00
64298;BME280;50639;53.270;7.956;2023-03-01T07:43:53;107190.38;;;-0.48;100.00
64298;BME280;50639;53.270;7.956;2023-03-01T07:46:19;107248.59;;;-0.40;100.00
64298;BME280;50639;53.270;7.956;2023-03-01T07:48:44;107238.91;;;-0.35;100.00
64298;BME280;50639;53.270;7.956;2023-03-01T07:51:09;107523.00;;;-0.20;100.00
64298;BME280;50639;53.270;7.956;2023-03-01T07:53:35;107499.19;;;-0.14;100.00
64298;BME280;50639;53.270;7.956;2023-03-01T07:56:04;107580.44;;;-0.04;100.00
64298;BME280;50639;53.270;7.956;2023-03-01T07:58:30;107132.97;;;-0.08;100.00
64298;BME280;50639;53.270;7.956;2023-03-01T08:00:56;107531.94;;;0.10;100.00
64298;BME280;50639;53.270;7.956;2023-03-01T08:03:21;107797.75;;;0.27;100.00
64298;BME280;50639;53.270;7.956;2023-03-01T08:05:47;107865.88;;;0.38;100.00
64298;BME280;50639;53.270;7.956;2023-03-01T08:08:12;107690.97;;;0.41;100.00
64298;BME280;50639;53.270;7.956;2023-03-01T08:10:37;107676.00;;;0.48;100.00
64298;BME280;50639;53.270;7.956;2023-03-01T08:13:03;107827.13;;;0.63;100.00
64298;BME280;50639;53.270;7.956;2023-03-01T08:15:28;107406.53;;;0.59;100.00
64298;BME280;50639;53.270;7.956;2023-03-01T08:17:54;107198.06;;;0.58;100.00
64298;BME280;50639;53.270;7.956;2023-03-01T08:20:19;107478.13;;;0.71;100.00
64298;BME280;50639;53.270;7.956;2023-03-01T08:22:45;107524.94;;;0.79;100.00
64298;BME280;50639;53.270;7.956;2023-03-01T08:25:10;107575.34;;;0.87;100.00
64298;BME280;50639;53.270;7.956;2023-03-01T08:27:36;107578.88;;;0.95;100.00
64298;BME280;50639;53.270;7.956;2023-03-01T08:30:01;107722.97;;;1.06;100.00
64298;BME280;50639;53.270;7.956;2023-03-01T08:32:27;107661.09;;;1.13;100.00
64298;BME280;50639;53.270;7.956;2023-03-01T08:34:52;107631.91;;;1.19;100.00
64298;BME280;50639;53.270;7.956;2023-03-01T08:37:18;107615.97;;;1.28;100.00
64298;BME280;50639;53.270;7.956;2023-03-01T08:39:43;107574.41;;;1.33;100.00
64298;BME280;50639;53.270;7.956;2023-03-01T08:42:09;107377.13;;;1.34;100.00
64298;BME280;50639;53.270;7.956;2023-03-01T08:44:34;107113.56;;;1.32;100.00
64298;BME280;50639;53.270;7.956;2023-03-01T08:47:00;107073.75;;;1.35;100.00
64298;BME280;50639;53.270;7.956;2023-03-01T08:49:27;107114.38;;;1.40;100.00
64298;BME280;50639;53.270;7.956;2023-03-01T08:51:52;107161.22;;;1.47;100.00
64298;BME280;50639;53.270;7.956;2023-03-01T08:54:19;107189.44;;;1.54;100.00
64298;BME280;50639;53.270;7.956;2023-03-01T08:56:45;107161.97;;;1.58;100.00
64298;BME280;50639;53.270;7.956;2023-03-01T08:59:11;107239.78;;;1.65;100.00
64298;BME280;50639;53.270;7.956;2023-03-01T09:01:37;107130.03;;;1.67;100.00
64298;BME280;50639;53.270;7.956;2023-03-01T09:04:03;106793.81;;;1.63;100.00
64298;BME280;50639;53.270;7.956;2023-03-01T09:06:32;106677.88;;;1.65;100.00
64298;BME280;50639;53.270;7.956;2023-03-01T09:09:01;106953.78;;;1.78;100.00
64298;BME280;50639;53.270;7.956;2023-03-01T09:11:27;107354.59;;;1.96;100.00
64298;BME280;50639;53.270;7.956;2023-03-01T09:13:53;107443.06;;;2.10;100.00
64298;BME280;50639;53.270;7.956;2023-03-01T09:16:19;106949.84;;;2.06;100.00
64298;BME280;50639;53.270;7.956;2023-03-01T09:18:48;107203.75;;;2.23;100.00
64298;BME280;50639;53.270;7.956;2023-03-01T09:21:14;107241.78;;;2.33;100.00
64298;BME280;50639;53.270;7.956;2023-03-01T09:23:41;107338.19;;;2.47;100.00
64298;BME280;50639;53.270;7.956;2023-03-01T09:26:07;107086.44;;;2.52;100.00
64298;BME280;50639;53.270;7.956;2023-03-01T09:28:34;107047.31;;;2.60;100.00
64298;BME280;50639;53.270;7.956;2023-03-01T09:31:00;106648.59;;;2.57;100.00
64298;BME280;50639;53.270;7.956;2023-03-01T09:33:26;106745.78;;;2.70;100.00
64298;BME280;50639;53.270;7.956;2023-03-01T09:36:01;106673.84;;;2.78;100.00
64298;BME280;50639;53.270;7.956;2023-03-01T09:38:27;106753.31;;;2.91;100.00
64298;BME280;50639;53.270;7.956;2023-03-01T09:40:53;106546.59;;;2.96;100.00
64298;BME280;50639;53.270;7.956;2023-03-01T09:43:42;106725.50;;;3.06;100.00
64298;BME280;50639;53.270;7.956;2023-03-01T09:46:05;106751.00;;;3.16;100.00
64298;BME280;50639;53.270;7.956;2023-03-01T09:48:37;106728.63;;;3.24;100.00
64298;BME280;50639;53.270;7.956;2023-03-01T09:51:05;107131.88;;;3.48;100.00
64298;BME280;50639;53.270;7.956;2023-03-01T09:53:32;107133.28;;;3.66;100.00
64298;BME280;50639;53.270;7.956;2023-03-01T09:58:31;107170.13;;;3.90;100.00
64298;BME280;50639;53.270;7.956;2023-03-01T10:06:38;106932.88;;;3.94;100.00
64298;BME280;50639;53.270;7.956;2023-03-01T10:09:10;106768.38;;;4.02;100.00
64298;BME280;50639;53.270;7.956;2023-03-01T10:11:38;106973.19;;;4.19;100.00
64298;BME280;50639;53.270;7.956;2023-03-01T10:16:57;107842.03;;;4.43;100.00
64298;BME280;50639;53.270;7.956;2023-03-01T10:19:30;107310.97;;;4.58;100.00
64298;BME280;50639;53.270;7.956;2023-03-01T10:22:03;106699.22;;;4.59;100.00
64298;BME280;50639;53.270;7.956;2023-03-01T10:24:30;106504.13;;;4.71;100.00
64298;BME280;50639;53.270;7.956;2023-03-01T10:26:57;106636.84;;;4.91;100.00
64298;BME280;50639;53.270;7.956;2023-03-01T10:29:31;106447.25;;;4.95;100.00
64298;BME280;50639;53.270;7.956;2023-03-01T10:31:59;106448.66;;;5.05;100.00
64298;BME280;50639;53.270;7.956;2023-03-01T10:34:29;106131.22;;;5.02;100.00
64298;BME280;50639;53.270;7.956;2023-03-01T10:37:28;106378.00;;;5.16;100.00
64298;BME280;50639;53.270;7.956;2023-03-01T10:40:08;106727.91;;;5.37;100.00
64298;BME280;50639;53.270;7.956;2023-03-01T10:47:40;106259.91;;;5.54;100.00
64298;BME280;50639;53.270;7.956;2023-03-01T10:50:05;106587.06;;;5.67;100.00
64298;BME280;50639;53.270;7.956;2023-03-01T10:52:37;106077.09;;;5.61;100.00
64298;BME280;50639;53.270;7.956;2023-03-01T10:57:35;106686.88;;;5.92;100.00
64298;BME280;50639;53.270;7.956;2023-03-01T11:02:40;106450.13;;;6.08;100.00
64298;BME280;50639;53.270;7.956;2023-03-01T11:07:53;106266.84;;;6.21;100.00
64298;BME280;50639;53.270;7.956;2023-03-01T11:10:21;106161.56;;;6.24;100.00
64298;BME280;50639;53.270;7.956;2023-03-01T11:12:46;106332.09;;;6.37;100.00
64298;BME280;50639;53.270;7.956;2023-03-01T11:15:23;106394.97;;;6.47;100.00
64298;BME280;50639;53.270;7.956;2023-03-01T11:17:49;106326.91;;;6.54;100.00
64298;BME280;50639;53.270;7.956;2023-03-01T11:20:26;106274.00;;;6.61;100.00
64298;BME280;50639;53.270;7.956;2023-03-01T11:22:53;106341.34;;;6.70;100.00
64298;BME280;50639;53.270;7.956;2023-03-01T11:25:21;106531.72;;;6.83;100.00
64298;BME280;50639;53.270;7.956;2023-03-01T11:27:48;106319.22;;;6.86;100.00
64298;BME280;50639;53.270;7.956;2023-03-01T11:33:03;106369.13;;;7.07;100.00
64298;BME280;50639;53.270;7.956;2023-03-01T11:35:30;106428.34;;;7.19;100.00
64298;BME280;50639;53.270;7.956;2023-03-01T11:40:31;106082.66;;;7.24;100.00
64298;BME280;50639;53.270;7.956;2023-03-01T11:43:09;105821.94;;;7.25;100.00
64298;BME280;50639;53.270;7.956;2023-03-01T11:48:47;106298.16;;;7.52;100.00
64298;BME280;50639;53.270;7.956;2023-03-01T11:51:35;106177.28;;;7.58;100.00
64298;BME280;50639;53.270;7.956;2023-03-01T11:56:31;105715.22;;;7.64;100.00
64298;BME280;50639;53.270;7.956;2023-03-01T12:06:42;105261.50;;;7.78;100.00
64298;BME280;50639;53.270;7.956;2023-03-01T12:09:17;105565.47;;;7.88;100.00
64298;BME280;50639;53.270;7.956;2023-03-01T12:20:21;105392.09;;;8.02;100.00
64298;BME280;50639;53.270;7.956;2023-03-01T12:25:39;105001.63;;;8.01;100.00
64298;BME280;50639;53.270;7.956;2023-03-01T12:28:11;105163.69;;;8.10;100.00
64298;BME280;50639;53.270;7.956;2023-03-01T12:33:17;105318.59;;;8.19;100.00
64298;BME280;50639;53.270;7.956;2023-03-01T12:38:20;105532.84;;;8.37;100.00
64298;BME280;50639;53.270;7.956;2023-03-01T12:46:33;105395.97;;;8.52;100.00
64298;BME280;50639;53.270;7.956;2023-03-01T12:49:14;105308.81;;;8.57;100.00
64298;BME280;50639;53.270;7.956;2023-03-01T12:51:43;105098.03;;;8.53;100.00
64298;BME280;50639;53.270;7.956;2023-03-01T12:54:15;105327.94;;;8.65;100.00
64298;BME280;50639;53.270;7.956;2023-03-01T12:56:41;105532.91;;;8.77;100.00
64298;BME280;50639;53.270;7.956;2023-03-01T12:59:17;105453.88;;;8.81;100.00
64298;BME280;50639;53.270;7.956;2023-03-01T13:09:40;104867.72;;;8.60;100.00
64298;BME280;50639;53.270;7.956;2023-03-01T13:14:58;104424.47;;;8.45;100.00
64298;BME280;50639;53.270;7.956;2023-03-01T13:17:30;104916.47;;;8.54;100.00
64298;BME280;50639;53.270;7.956;2023-03-01T13:19:59;104780.22;;;8.46;100.00
64298;BME280;50639;53.270;7.956;2023-03-01T13:22:30;104657.44;;;8.38;100.00
64298;BME280;50639;53.270;7.956;2023-03-01T13:25:11;105061.78;;;8.48;100.00
64298;BME280;50639;53.270;7.956;2023-03-01T13:27:38;105065.97;;;8.52;100.00
64298;BME280;50639;53.270;7.956;2023-03-01T13:35:42;105235.06;;;8.63;100.00
64298;BME280;50639;53.270;7.956;2023-03-01T13:41:06;104935.53;;;8.62;100.00
64298;BME280;50639;53.270;7.956;2023-03-01T13:43:35;104897.22;;;8.60;100.00
64298;BME280;50639;53.270;7.956;2023-03-01T13:46:02;104759.88;;;8.55;100.00
64298;BME280;50639;53.270;7.956;2023-03-01T13:48:32;104515.53;;;8.47;100.00
64298;BME280;50639;53.270;7.956;2023-03-01T13:51:02;104664.88;;;8.46;100.00
64298;BME280;50639;53.270;7.956;2023-03-01T13:53:40;104731.09;;;8.46;100.00
64298;BME280;50639;53.270;7.956;2023-03-01T13:56:08;104995.34;;;8.51;100.00
64298;BME280;50639;53.270;7.956;2023-03-01T13:58:43;105204.06;;;8.59;100.00
64298;BME280;50639;53.270;7.956;2023-03-01T14:01:28;105326.88;;;8.68;100.00
64298;BME280;50639;53.270;7.956;2023-03-01T14:03:54;105294.44;;;8.71;100.00
64298;BME280;50639;53.270;7.956;2023-03-01T14:06:22;105203.19;;;8.71;100.00
64298;BME280;50639;53.270;7.956;2023-03-01T14:08:48;104926.38;;;8.64;100.00
64298;BME280;50639;53.270;7.956;2023-03-01T14:16:33;105064.97;;;8.65;100.00
64298;BME280;50639;53.270;7.956;2023-03-01T14:21:39;105058.91;;;8.74;100.00
64298;BME280;50639;53.270;7.956;2023-03-01T14:24:04;105313.13;;;8.85;100.00
64298;BME280;50639;53.270;7.956;2023-03-01T14:26:30;105214.66;;;8.85;100.00